Time;durP1;ratioP1;P1;durP2;ratioP2;P2;SDS_P1;SDS_P2;PMS_P1;PMS_P2;Temp;Humidity;BMP_temperature;BMP_pressure;BME280_temperature;BME280_humidity;BME280_pressure;Samples;Min_cycle;Max_cycle;Signal;HPM_P1;HPM_P2
2021/12/12 00:01:38;;;;;;;31.58;13.95;;;;;;;2.96;100.00;101895.78;5159939;28;20474;-64
2021/12/12 00:04:14;;;;;;;32.72;14.80;;;;;;;2.98;100.00;101896.59;5163382;28;20540;-64
2021/12/12 00:06:57;;;;;;;31.83;14.30;;;;;;;2.98;100.00;101893.97;5162463;28;20374;-64
2021/12/12 00:09:34;;;;;;;31.52;13.80;;;;;;;3.00;100.00;101899.19;5168682;28;20044;-64
2021/12/12 00:12:11;;;;;;;30.15;13.23;;;;;;;2.98;100.00;101901.88;5163937;28;20035;-64
2021/12/12 00:14:43;;;;;;;27.50;13.48;;;;;;;3.01;100.00;101890.34;5155245;28;20061;-64
2021/12/12 00:17:14;;;;;;;32.90;13.40;;;;;;;3.05;100.00;101889.34;5175990;28;20034;-64
2021/12/12 00:19:46;;;;;;;33.08;12.65;;;;;;;3.04;100.00;101887.66;5173142;28;20037;-65
2021/12/12 00:22:28;;;;;;;30.10;13.10;;;;;;;3.06;100.00;101891.09;5169318;28;20065;-64
2021/12/12 00:24:59;;;;;;;31.00;12.85;;;;;;;3.06;100.00;101885.84;5160248;28;20038;-64
2021/12/12 00:27:31;;;;;;;31.83;12.43;;;;;;;3.10;100.00;101890.09;5163956;28;20031;-64
2021/12/12 00:30:07;;;;;;;33.17;12.45;;;;;;;3.06;100.00;101870.88;5159713;28;20085;-64
2021/12/12 00:32:39;;;;;;;27.80;13.18;;;;;;;3.12;100.00;101877.75;5163704;28;20047;-64
2021/12/12 00:35:13;;;;;;;30.52;13.20;;;;;;;3.12;100.00;101870.69;5159474;28;20042;-64
2021/12/12 00:37:49;;;;;;;34.20;12.25;;;;;;;3.14;100.00;101871.53;5166289;28;20042;-64
2021/12/12 00:40:26;;;;;;;28.73;11.77;;;;;;;3.13;100.00;101867.16;5164338;28;20444;-64
2021/12/12 00:43:02;;;;;;;30.55;12.80;;;;;;;3.17;100.00;101872.34;5165624;28;20465;-64
2021/12/12 00:45:33;;;;;;;32.97;11.75;;;;;;;3.16;100.00;101867.97;5163055;28;20062;-64
2021/12/12 00:48:06;;;;;;;28.85;12.30;;;;;;;3.19;100.00;101860.84;5165241;28;20533;-64
2021/12/12 00:50:41;;;;;;;33.72;12.02;;;;;;;3.19;100.00;101868.75;5162455;28;20072;-64
2021/12/12 00:53:13;;;;;;;30.35;12.02;;;;;;;3.20;100.00;101873.09;5162941;28;20477;-64
2021/12/12 00:55:45;;;;;;;29.42;11.70;;;;;;;3.20;100.00;101867.81;5165035;28;20085;-64
2021/12/12 00:58:18;;;;;;;27.73;12.18;;;;;;;3.24;100.00;101861.56;5161751;28;20123;-64
2021/12/12 01:01:07;;;;;;;35.58;12.73;;;;;;;3.26;100.00;101859.75;5166869;28;20655;-64
2021/12/12 01:03:44;;;;;;;28.83;11.85;;;;;;;3.26;100.00;101851.84;5164556;28;20122;-64
2021/12/12 01:06:18;;;;;;;38.70;12.95;;;;;;;3.25;100.00;101844.81;5170523;28;20046;-65
2021/12/12 01:08:55;;;;;;;31.27;12.10;;;;;;;3.30;100.00;101842.06;5160588;28;20030;-65
2021/12/12 01:11:31;;;;;;;31.00;12.60;;;;;;;3.23;100.00;101843.16;5165868;28;20062;-65
2021/12/12 01:14:05;;;;;;;39.67;12.55;;;;;;;3.28;100.00;101842.13;5161869;28;20447;-65
2021/12/12 01:16:42;;;;;;;32.15;12.75;;;;;;;3.30;100.00;101852.63;5162577;28;20788;-65
2021/12/12 01:19:25;;;;;;;32.72;12.77;;;;;;;3.29;100.00;101851.72;5162086;28;20035;-65
2021/12/12 01:22:04;;;;;;;31.95;12.80;;;;;;;3.29;100.00;101846.47;5161748;28;20030;-64
2021/12/12 01:24:40;;;;;;;44.67;13.10;;;;;;;3.29;100.00;101850.88;5167186;28;20035;-64
2021/12/12 01:27:12;;;;;;;33.40;13.70;;;;;;;3.34;100.00;101843.69;5168550;28;20473;-64
2021/12/12 01:29:45;;;;;;;35.75;13.35;;;;;;;3.34;100.00;101852.47;5164486;28;20030;-64
2021/12/12 01:32:30;;;;;;;44.08;13.32;;;;;;;3.36;100.00;101860.34;5166264;28;20043;-64
2021/12/12 01:35:13;;;;;;;31.00;13.18;;;;;;;3.38;100.00;101855.88;5168929;28;20117;-65
2021/12/12 01:38:51;;;;;;;39.95;14.13;;;;;;;3.37;100.00;101853.28;5169086;28;20065;-65
2021/12/12 01:40:44;;;;;;;45.90;14.18;;;;;;;3.39;100.00;101856.75;5166922;28;20034;-65
2021/12/12 01:43:22;;;;;;;35.63;13.35;;;;;;;3.42;100.00;101852.25;5163899;28;20089;-65
2021/12/12 01:46:12;;;;;;;34.35;13.95;;;;;;;3.46;100.00;101847.72;5161720;28;20045;-65
2021/12/12 01:48:54;;;;;;;35.50;13.57;;;;;;;3.43;100.00;101853.09;5162707;28;20030;-65
2021/12/12 01:51:28;;;;;;;37.88;13.55;;;;;;;3.48;100.00;101844.13;5163559;28;21686;-65
2021/12/12 01:54:04;;;;;;;35.72;13.40;;;;;;;3.44;100.00;101852.19;5160052;28;20393;-65
2021/12/12 01:56:50;;;;;;;29.80;13.85;;;;;;;3.48;100.00;101851.19;5166444;28;20432;-65
2021/12/12 01:59:24;;;;;;;41.10;14.70;;;;;;;3.49;100.00;101848.50;5158298;28;20077;-65
2021/12/12 02:02:10;;;;;;;39.05;14.13;;;;;;;3.54;100.00;101841.28;5166094;28;20031;-65
2021/12/12 02:04:48;;;;;;;33.42;13.48;;;;;;;3.51;100.00;101846.69;5159989;28;20023;-65
2021/12/12 02:07:25;;;;;;;35.55;13.95;;;;;;;3.56;100.00;101843.91;5168975;28;20045;-65
2021/12/12 02:10:05;;;;;;;36.60;15.45;;;;;;;3.57;100.00;101844.75;5161325;28;20657;-65
2021/12/12 02:12:37;;;;;;;40.20;13.52;;;;;;;3.59;100.00;101843.81;5163608;28;20054;-65
2021/12/12 02:15:10;;;;;;;39.75;13.70;;;;;;;3.63;100.00;101836.66;5161845;28;20556;-66
2021/12/12 02:17:46;;;;;;;32.85;10.98;;;;;;;3.60;100.00;101832.31;5164253;28;20384;-65
2021/12/12 02:20:41;;;;;;;42.85;13.57;;;;;;;3.65;100.00;101837.47;5159161;28;20051;-65
2021/12/12 02:23:30;;;;;;;36.08;12.82;;;;;;;3.66;100.00;101828.63;5164861;28;20120;-65
2021/12/12 02:37:23;;;;;;;42.35;14.25;;;;;;;3.78;100.00;101832.66;5162002;28;20385;-65
2021/12/12 02:39:55;;;;;;;39.00;13.15;;;;;;;3.80;100.00;101825.56;5162448;28;20030;-65
2021/12/12 02:42:26;;;;;;;31.27;12.80;;;;;;;3.78;100.00;101830.00;5162246;28;20054;-65
2021/12/12 02:45:00;;;;;;;39.47;13.90;;;;;;;3.81;100.00;101824.66;5163464;28;20038;-65
2021/12/12 02:47:34;;;;;;;35.65;13.00;;;;;;;3.83;100.00;101814.91;5163864;28;20121;-66
2021/12/12 02:50:28;;;;;;;38.60;13.35;;;;;;;3.86;100.00;101802.47;5164759;28;20049;-66
2021/12/12 02:53:11;;;;;;;42.53;13.20;;;;;;;3.86;100.00;101801.59;5160572;28;20026;-66
2021/12/12 02:55:46;;;;;;;42.35;13.48;;;;;;;3.88;100.00;101797.13;5159926;28;20500;-66
2021/12/12 02:58:20;;;;;;;33.63;12.73;;;;;;;3.88;100.00;101794.50;5164961;28;20490;-66
2021/12/12 03:01:01;;;;;;;43.08;13.27;;;;;;;3.91;100.00;101797.91;5163104;28;20037;-66
2021/12/12 03:03:36;;;;;;;43.22;12.98;;;;;;;3.90;100.00;101790.88;5173448;28;20565;-66
2021/12/12 03:06:11;;;;;;;42.28;13.43;;;;;;;3.93;100.00;101795.19;5160418;28;20070;-66
2021/12/12 03:08:45;;;;;;;40.10;13.65;;;;;;;3.99;100.00;101808.22;5158325;28;20379;-66
2021/12/12 03:11:16;;;;;;;32.27;14.33;;;;;;;3.97;100.00;101796.84;5160641;28;20047;-66
2021/12/12 03:13:48;;;;;;;39.92;13.68;;;;;;;4.00;100.00;101790.56;5158878;28;20038;-66
2021/12/12 03:16:20;;;;;;;37.50;13.13;;;;;;;4.06;100.00;101790.38;5160488;28;20034;-66
2021/12/12 03:18:52;;;;;;;40.25;14.13;;;;;;;4.00;100.00;101788.78;5160355;28;20534;-66
2021/12/12 03:21:32;;;;;;;43.67;14.30;;;;;;;4.05;100.00;101791.28;5161977;28;20051;-66
2021/12/12 03:24:10;;;;;;;41.20;13.98;;;;;;;4.03;100.00;101791.34;5160170;28;20034;-66
2021/12/12 03:26:44;;;;;;;48.72;14.25;;;;;;;4.04;100.00;101785.13;5159964;28;20035;-66
2021/12/12 03:29:16;;;;;;;42.33;14.80;;;;;;;4.06;100.00;101779.81;5162995;28;20026;-66
2021/12/12 03:31:52;;;;;;;38.35;15.00;;;;;;;4.09;100.00;101777.91;5165699;28;20638;-66
2021/12/12 03:34:34;;;;;;;42.45;14.77;;;;;;;4.07;100.00;101768.34;5159770;28;20449;-66
2021/12/12 03:37:08;;;;;;;47.33;15.90;;;;;;;4.08;100.00;101772.69;5161953;28;20039;-66
2021/12/12 03:39:43;;;;;;;47.75;15.90;;;;;;;4.08;100.00;101762.97;5162639;28;20081;-66
2021/12/12 03:42:19;;;;;;;49.97;15.55;;;;;;;4.09;100.00;101766.50;5162886;28;20530;-66
2021/12/12 03:44:52;;;;;;;35.67;14.43;;;;;;;4.14;100.00;101764.53;5161370;28;20082;-66
2021/12/12 03:47:31;;;;;;;38.70;15.63;;;;;;;4.17;100.00;101766.25;5160545;28;20393;-66
2021/12/12 03:50:07;;;;;;;44.88;15.55;;;;;;;4.18;100.00;101760.91;5159633;28;20515;-66
2021/12/12 03:52:39;;;;;;;39.38;16.27;;;;;;;4.19;100.00;101759.13;5163113;28;20065;-66
2021/12/12 03:55:12;;;;;;;46.20;16.38;;;;;;;4.18;100.00;101763.56;5157928;28;20034;-66
2021/12/12 03:57:44;;;;;;;44.00;15.88;;;;;;;4.20;100.00;101761.72;5156714;28;20030;-66
2021/12/12 04:00:25;;;;;;;36.70;16.58;;;;;;;4.21;100.00;101768.72;5160471;28;20384;-66
2021/12/12 04:02:58;;;;;;;37.45;17.48;;;;;;;4.20;100.00;101759.06;5158667;28;20680;-66
2021/12/12 04:05:29;;;;;;;39.40;17.23;;;;;;;4.23;100.00;101761.59;5161491;28;20537;-66
2021/12/12 04:08:02;;;;;;;50.28;19.15;;;;;;;4.23;100.00;101766.88;5163093;28;20045;-66
2021/12/12 04:10:33;;;;;;;39.95;18.00;;;;;;;4.25;100.00;101765.03;5166131;28;20495;-66
2021/12/12 04:13:05;;;;;;;46.25;18.90;;;;;;;4.26;100.00;101765.91;5168914;28;20038;-66
2021/12/12 04:15:36;;;;;;;43.10;18.58;;;;;;;4.28;100.00;101764.09;5163140;28;20034;-66
2021/12/12 04:18:07;;;;;;;45.45;18.38;;;;;;;4.31;100.00;101774.53;5168146;28;20045;-66
2021/12/12 04:20:39;;;;;;;43.28;18.27;;;;;;;4.30;100.00;101770.16;5170540;28;20515;-66
2021/12/12 04:23:19;;;;;;;41.08;16.45;;;;;;;4.35;100.00;101775.28;5165669;28;20031;-66
2021/12/12 04:25:51;;;;;;;42.03;17.38;;;;;;;4.34;100.00;101787.63;5165689;28;20117;-65
2021/12/12 04:28:22;;;;;;;35.00;16.80;;;;;;;4.33;100.00;101777.97;5165970;28;20352;-65
2021/12/12 04:30:54;;;;;;;37.15;16.50;;;;;;;4.35;100.00;101773.50;5163756;28;20110;-65
2021/12/12 04:33:25;;;;;;;38.83;15.75;;;;;;;4.37;100.00;101776.09;5162179;28;20041;-65
2021/12/12 04:35:57;;;;;;;42.88;17.33;;;;;;;4.39;100.00;101774.25;5163183;28;20030;-66
2021/12/12 04:38:28;;;;;;;32.45;15.63;;;;;;;4.41;100.00;101765.38;5161474;28;20477;-66
2021/12/12 04:41:00;;;;;;;38.72;16.35;;;;;;;4.42;100.00;101768.88;5162865;28;20019;-65
2021/12/12 04:43:31;;;;;;;34.70;15.82;;;;;;;4.42;100.00;101766.22;5161996;28;20778;-66
2021/12/12 04:46:09;;;;;;;37.85;17.23;;;;;;;4.43;100.00;101776.75;5162806;28;20534;-66
2021/12/12 04:52:05;;;;;;;32.03;15.40;;;;;;;4.49;100.00;101770.38;5161970;28;20039;-66
2021/12/12 04:54:43;;;;;;;37.25;16.27;;;;;;;4.46;100.00;101773.97;5159970;28;20386;-66
2021/12/12 04:57:22;;;;;;;32.15;14.60;;;;;;;4.48;100.00;101771.28;5160715;28;20097;-66
2021/12/12 05:00:03;;;;;;;28.20;15.80;;;;;;;4.51;100.00;101777.31;5161096;28;20484;-66
2021/12/12 05:02:44;;;;;;;30.33;14.60;;;;;;;4.53;100.00;101774.63;5172560;28;20022;-66
2021/12/12 05:05:28;;;;;;;32.78;14.60;;;;;;;4.56;100.00;101782.44;5160263;28;20035;-66
2021/12/12 05:08:06;;;;;;;32.92;14.93;;;;;;;4.54;100.00;101780.78;5161762;28;20042;-66
2021/12/12 05:10:50;;;;;;;30.52;14.93;;;;;;;4.54;100.00;101792.19;5152948;28;20380;-66
2021/12/12 05:13:37;;;;;;;30.75;14.43;;;;;;;4.57;100.00;101788.59;5167035;28;20532;-65
2021/12/12 05:16:18;;;;;;;29.55;14.18;;;;;;;4.60;100.00;101788.47;5168003;28;20077;-65
2021/12/12 05:18:52;;;;;;;31.60;15.18;;;;;;;4.59;100.00;101792.91;5169998;28;20125;-65
2021/12/12 05:21:29;;;;;;;33.40;16.10;;;;;;;4.59;100.00;101795.53;5149535;28;21484;-65
2021/12/12 05:24:04;;;;;;;29.58;13.77;;;;;;;4.68;100.00;101799.66;5169154;28;20035;-65
2021/12/12 05:26:46;;;;;;;29.50;14.65;;;;;;;4.66;100.00;101798.81;5168747;28;20053;-65
2021/12/12 05:29:29;;;;;;;32.13;14.43;;;;;;;4.67;100.00;101797.91;5169707;28;20027;-65
2021/12/12 05:32:05;;;;;;;32.47;15.27;;;;;;;4.67;100.00;101798.75;5169194;28;20449;-65
2021/12/12 05:34:40;;;;;;;29.02;14.18;;;;;;;4.71;100.00;101796.88;5170444;28;20349;-65
2021/12/12 05:37:12;;;;;;;26.35;13.50;;;;;;;4.71;100.00;101788.94;5167731;28;20030;-65
2021/12/12 05:39:44;;;;;;;27.50;13.30;;;;;;;4.75;100.00;101793.19;5168264;28;20022;-65
2021/12/12 05:42:17;;;;;;;22.88;12.48;;;;;;;4.76;100.00;101792.28;5169459;28;20027;-65
2021/12/12 05:44:49;;;;;;;27.00;13.20;;;;;;;4.76;100.00;101797.59;5167609;28;20030;-65
2021/12/12 05:47:21;;;;;;;23.25;13.10;;;;;;;4.81;100.00;101795.59;5169569;28;20624;-65
2021/12/12 05:49:53;;;;;;;24.55;13.52;;;;;;;4.80;100.00;101799.19;5169073;28;20091;-65
2021/12/12 05:52:24;;;;;;;28.67;13.93;;;;;;;4.84;100.00;101803.44;5169433;28;20039;-65
2021/12/12 05:54:56;;;;;;;29.80;14.02;;;;;;;4.82;100.00;101802.63;5169796;28;20050;-65
2021/12/12 05:57:28;;;;;;;25.88;13.60;;;;;;;4.84;100.00;101807.88;5167038;28;20039;-66
2021/12/12 06:00:00;;;;;;;26.08;13.52;;;;;;;4.87;100.00;101811.28;5169872;28;20623;-66
2021/12/12 06:02:33;;;;;;;22.63;13.10;;;;;;;4.89;100.00;101817.38;5169017;28;20030;-66
2021/12/12 06:05:05;;;;;;;26.40;13.40;;;;;;;4.88;100.00;101815.63;5168108;28;20030;-66
2021/12/12 06:07:37;;;;;;;25.13;13.63;;;;;;;4.94;100.00;101826.91;5165993;28;20047;-66
2021/12/12 06:10:14;;;;;;;22.95;13.23;;;;;;;4.94;100.00;101827.75;5169157;28;20437;-66
2021/12/12 06:12:46;;;;;;;26.27;14.15;;;;;;;4.93;100.00;101823.41;5168319;28;20026;-66
2021/12/12 06:15:19;;;;;;;30.40;15.23;;;;;;;4.96;100.00;101831.19;5168098;28;20061;-66
2021/12/12 06:17:52;;;;;;;30.05;15.57;;;;;;;4.97;100.00;101832.09;5167935;28;20413;-66
2021/12/12 06:20:24;;;;;;;27.75;14.90;;;;;;;4.98;100.00;101829.38;5152881;28;20042;-66
2021/12/12 06:22:56;;;;;;;38.83;17.20;;;;;;;5.01;100.00;101836.34;5169911;28;20113;-66
2021/12/12 06:25:27;;;;;;;34.13;15.75;;;;;;;5.01;100.00;101836.34;5168191;28;20178;-66
2021/12/12 06:27:59;;;;;;;31.08;15.30;;;;;;;5.04;100.00;101828.28;5168019;28;20034;-66
2021/12/12 06:30:31;;;;;;;32.95;16.33;;;;;;;5.06;100.00;101829.97;5168791;28;20030;-66
2021/12/12 06:33:04;;;;;;;41.83;18.20;;;;;;;5.07;100.00;101829.03;5166188;28;20053;-66
2021/12/12 06:35:36;;;;;;;30.40;15.23;;;;;;;5.12;100.00;101823.56;5167964;28;20130;-66
2021/12/12 06:38:10;;;;;;;32.78;16.17;;;;;;;5.10;100.00;101818.34;5168800;28;20045;-66
2021/12/12 06:40:42;;;;;;;;;;;;;;;5.17;100.00;101823.38;5168304;28;20027;-66
2021/12/12 06:43:17;;;;;;;32.35;15.90;;;;;;;5.14;100.00;101824.38;5167415;28;19945;-66
2021/12/12 06:45:51;;;;;;;37.75;16.38;;;;;;;5.16;100.00;101832.22;5167469;28;20035;-66
2021/12/12 06:48:23;;;;;;;33.67;17.33;;;;;;;5.18;100.00;101831.28;5168966;28;20037;-66
2021/12/12 06:50:56;;;;;;;48.20;18.85;;;;;;;5.17;100.00;101836.63;5167643;28;20394;-66
2021/12/12 06:53:31;;;;;;;32.25;16.92;;;;;;;5.21;100.00;101838.22;5168659;28;20030;-66
2021/12/12 06:56:04;;;;;;;36.03;16.55;;;;;;;5.23;100.00;101837.22;5168380;28;20031;-66
2021/12/12 06:58:36;;;;;;;36.03;16.98;;;;;;;5.28;100.00;101837.06;5167625;28;20034;-66
2021/12/12 07:01:16;;;;;;;31.75;17.40;;;;;;;5.26;100.00;101845.06;5164878;28;20239;-66
2021/12/12 07:03:48;;;;;;;41.17;18.92;;;;;;;5.27;100.00;101849.44;5174694;28;20064;-66
2021/12/12 07:06:23;;;;;;;33.20;17.85;;;;;;;5.34;100.00;101834.19;5175405;28;20097;-66
2021/12/12 07:08:56;;;;;;;;;;;;;;;5.35;100.00;101851.81;5166827;28;20028;-66
2021/12/12 07:11:28;;;;;;;37.15;17.88;;;;;;;5.36;100.00;101850.00;5167287;28;20008;-66
2021/12/12 07:14:01;;;;;;;31.25;17.10;;;;;;;5.36;100.00;101837.63;5168048;28;20030;-66
2021/12/12 07:16:33;;;;;;;35.17;18.38;;;;;;;5.36;100.00;101848.22;5166857;28;20052;-66
2021/12/12 07:19:06;;;;;;;36.65;19.10;;;;;;;5.36;100.00;101842.94;5166629;28;20035;-66
2021/12/12 07:21:38;;;;;;;41.20;19.77;;;;;;;5.39;100.00;101850.75;5165994;28;20121;-66
2021/12/12 07:24:09;;;;;;;46.88;21.13;;;;;;;5.37;100.00;101847.31;5166562;28;20114;-66
2021/12/12 07:26:41;;;;;;;41.38;19.88;;;;;;;5.41;100.00;101848.06;5166924;28;20063;-66
2021/12/12 07:29:12;;;;;;;44.38;20.08;;;;;;;5.44;100.00;101848.78;5166480;28;20035;-66
2021/12/12 07:31:44;;;;;;;37.50;18.58;;;;;;;5.46;100.00;101851.38;5168162;28;20054;-66
2021/12/12 07:34:16;;;;;;;39.40;19.35;;;;;;;5.49;100.00;101840.69;5166201;28;20023;-66
2021/12/12 07:36:53;;;;;;;42.20;19.63;;;;;;;5.50;100.00;101837.97;5165686;28;20033;-66
2021/12/12 07:39:24;;;;;;;41.17;19.92;;;;;;;5.55;100.00;101844.88;5165412;28;20025;-66
2021/12/12 07:42:00;;;;;;;38.35;19.40;;;;;;;5.56;100.00;101851.88;5165916;28;20472;-66
2021/12/12 07:44:35;;;;;;;48.83;20.15;;;;;;;5.55;100.00;101853.66;5168214;28;20027;-66
2021/12/12 07:47:09;;;;;;;41.35;19.98;;;;;;;5.56;100.00;101851.88;5168329;28;20054;-66
2021/12/12 07:49:45;;;;;;;40.63;19.55;;;;;;;5.61;100.00;101855.22;5147166;28;20683;-66
2021/12/12 07:52:20;;;;;;;48.67;21.35;;;;;;;5.61;100.00;101858.72;5165645;28;20078;-66
2021/12/12 07:54:55;;;;;;;40.88;19.92;;;;;;;5.64;100.00;101848.00;5168043;28;20031;-66
2021/12/12 07:57:28;;;;;;;43.00;20.25;;;;;;;5.68;100.00;101859.34;5167142;28;20023;-66
2021/12/12 08:00:01;;;;;;;51.63;22.27;;;;;;;5.70;100.00;101852.19;5166683;28;20023;-66
2021/12/12 08:02:32;;;;;;;45.75;20.10;;;;;;;5.70;100.00;101861.00;5171736;28;20023;-66
2021/12/12 08:05:04;;;;;;;46.95;21.45;;;;;;;5.70;100.00;101861.00;5168609;28;20065;-66
2021/12/12 08:07:38;;;;;;;48.33;21.67;;;;;;;5.73;100.00;101867.94;5169145;28;20031;-66
2021/12/12 08:10:12;;;;;;;56.97;22.50;;;;;;;5.76;100.00;101862.53;5168859;28;20492;-66
2021/12/12 08:12:44;;;;;;;47.50;21.77;;;;;;;5.77;100.00;101864.28;5167714;28;20543;-66
2021/12/12 08:15:17;;;;;;;47.33;22.23;;;;;;;5.83;100.00;101874.63;5166507;28;20023;-66
2021/12/12 08:17:49;;;;;;;56.92;23.35;;;;;;;5.84;100.00;101878.13;5175099;28;21157;-66
2021/12/12 08:20:21;;;;;;;49.80;22.85;;;;;;;5.86;100.00;101878.91;5168402;28;20388;-66
2021/12/12 08:22:53;;;;;;;49.15;22.52;;;;;;;5.86;100.00;101885.06;5165031;28;20023;-66
2021/12/12 08:25:27;;;;;;;55.88;24.10;;;;;;;5.90;100.00;101893.75;5170599;28;20030;-66
2021/12/12 08:28:00;;;;;;;45.00;22.08;;;;;;;5.94;100.00;101882.13;5170144;28;20053;-66
2021/12/12 08:30:35;;;;;;;52.70;21.98;;;;;;;5.96;100.00;101898.00;5167606;28;20033;-66
2021/12/12 08:33:08;;;;;;;46.78;22.13;;;;;;;6.01;100.00;101910.13;5165141;28;20513;-66
2021/12/12 08:35:41;;;;;;;56.85;22.90;;;;;;;5.98;100.00;101902.28;5167130;28;20042;-66
2021/12/12 08:38:15;;;;;;;53.57;21.70;;;;;;;6.02;100.00;101911.88;5168224;28;20069;-66
2021/12/12 08:40:50;;;;;;;46.42;23.35;;;;;;;6.04;100.00;101899.41;5165832;28;20563;-66
2021/12/12 08:43:24;;;;;;;67.22;25.05;;;;;;;6.03;100.00;101907.41;5171661;28;20049;-66
2021/12/12 08:45:59;;;;;;;60.88;23.73;;;;;;;6.08;100.00;101910.75;5174197;28;20023;-66
2021/12/12 08:48:35;;;;;;;51.58;21.52;;;;;;;6.11;100.00;101912.41;5169664;28;20046;-66
2021/12/12 08:51:17;;;;;;;53.03;23.73;;;;;;;6.11;100.00;101917.72;5167263;28;20046;-66
2021/12/12 08:53:51;;;;;;;47.47;20.88;;;;;;;6.19;100.00;101918.25;5168825;28;20750;-66
2021/12/12 08:56:42;;;;;;;55.97;22.52;;;;;;;6.12;100.00;101912.34;5172446;28;20133;-66
2021/12/12 08:59:21;;;;;;;55.75;23.23;;;;;;;6.20;100.00;101918.19;5171269;28;20034;-66
2021/12/12 09:01:57;;;;;;;56.65;23.27;;;;;;;6.24;100.00;101926.88;5168854;28;20081;-66
2021/12/12 09:04:34;;;;;;;52.38;21.60;;;;;;;6.20;100.00;101922.63;5167176;28;20034;-66
2021/12/12 09:07:08;;;;;;;52.30;21.02;;;;;;;6.26;100.00;101933.84;5176516;28;20384;-66
2021/12/12 09:09:48;;;;;;;54.75;21.77;;;;;;;6.30;100.00;101933.72;5173707;28;20476;-66
2021/12/12 09:12:25;;;;;;;59.65;23.25;;;;;;;6.32;100.00;101926.56;5173011;28;20059;-66
2021/12/12 09:15:18;;;;;;;50.03;21.52;;;;;;;6.37;100.00;101929.91;5171559;28;20046;-66
2021/12/12 09:17:56;;;;;;;56.25;21.42;;;;;;;6.37;100.00;101935.19;5175828;28;20023;-66
2021/12/12 09:20:35;;;;;;;66.85;23.77;;;;;;;6.40;100.00;101935.91;5174679;28;20073;-66
2021/12/12 09:23:13;;;;;;;66.93;23.88;;;;;;;6.40;100.00;101938.56;5174592;28;20523;-66
2021/12/12 09:25:56;;;;;;;70.95;24.42;;;;;;;6.38;100.00;101947.50;5171987;28;20124;-66
2021/12/12 09:28:46;;;;;;;55.28;21.52;;;;;;;6.40;100.00;101940.34;5173711;28;20090;-66
2021/12/12 09:31:25;;;;;;;54.67;21.48;;;;;;;6.47;100.00;101952.44;5169871;28;20043;-66
2021/12/12 09:34:24;;;;;;;49.15;20.30;;;;;;;6.50;100.00;101954.97;5174851;28;20598;-65
2021/12/12 09:37:04;;;;;;;56.80;22.00;;;;;;;6.49;100.00;101963.84;5144982;28;20499;-65
2021/12/12 09:39:41;;;;;;;50.40;20.80;;;;;;;6.55;100.00;101954.78;5175776;28;20030;-65
2021/12/12 09:42:41;;;;;;;49.58;20.45;;;;;;;6.58;100.00;101958.16;5167792;28;20812;-65
2021/12/12 09:45:30;;;;;;;50.67;21.40;;;;;;;6.61;100.00;101958.00;5172861;28;20031;-65
2021/12/12 09:48:27;;;;;;;45.95;19.85;;;;;;;6.65;100.00;101959.63;5169457;28;21894;-65
2021/12/12 09:51:34;;;;;;;52.38;21.20;;;;;;;6.70;100.00;101969.19;5169160;28;20508;-65
2021/12/12 09:54:24;;;;;;;61.92;21.25;;;;;;;6.68;100.00;101978.06;5170858;28;20121;-65
2021/12/12 09:58:10;;;;;;;63.50;22.33;;;;;;;6.76;100.00;101974.22;5169243;28;20472;-65
2021/12/12 10:00:49;;;;;;;60.63;22.45;;;;;;;6.76;100.00;101977.72;5036365;29;20517;-65
2021/12/12 10:03:22;;;;;;;50.67;21.10;;;;;;;6.82;100.00;101966.84;5082790;29;20483;-65
2021/12/12 10:06:16;;;;;;;61.85;22.52;;;;;;;6.80;100.00;101970.50;5159102;28;20372;-65
2021/12/12 10:09:04;;;;;;;54.67;19.88;;;;;;;6.82;100.00;101969.50;5169771;28;20033;-65
2021/12/12 10:11:41;;;;;;;54.22;22.00;;;;;;;6.80;100.00;101971.38;5164233;28;20063;-65
2021/12/12 10:14:31;;;;;;;59.28;22.40;;;;;;;6.87;100.00;101972.84;5158419;28;20046;-66
2021/12/12 10:17:22;;;;;;;53.17;21.33;;;;;;;6.90;100.00;101974.47;5163144;28;20484;-66
2021/12/12 10:20:07;;;;;;;56.97;24.10;;;;;;;6.94;100.00;101975.22;5164262;28;20168;-66
2021/12/12 10:22:56;;;;;;;56.70;21.77;;;;;;;6.97;100.00;101972.44;5163395;28;20089;-66
2021/12/12 10:25:46;;;;;;;50.30;21.17;;;;;;;7.02;100.00;101971.31;5165604;28;20030;-66
2021/12/12 10:28:25;;;;;;;52.65;22.73;;;;;;;7.01;100.00;101966.06;5163427;28;20523;-66
2021/12/12 10:31:03;;;;;;;56.55;21.63;;;;;;;7.01;100.00;101976.69;5165445;28;20129;-66
2021/12/12 10:33:48;;;;;;;57.25;21.70;;;;;;;7.02;100.00;101976.63;5163426;28;20034;-66
2021/12/12 10:36:26;;;;;;;56.08;22.90;;;;;;;7.03;100.00;101973.03;5168876;28;20026;-65
2021/12/12 10:39:03;;;;;;;49.85;21.55;;;;;;;7.04;100.00;101973.91;5164158;28;20026;-65
2021/12/12 10:41:38;;;;;;;56.72;22.77;;;;;;;7.07;100.00;101979.06;5167679;28;20035;-65
2021/12/12 10:44:19;;;;;;;54.95;22.50;;;;;;;7.11;100.00;101971.84;5165007;28;20023;-65
2021/12/12 10:47:19;;;;;;;44.05;21.15;;;;;;;7.13;100.00;101970.81;5163574;28;20485;-65
2021/12/12 10:49:59;;;;;;;61.53;23.80;;;;;;;7.14;100.00;101975.22;5166517;28;20023;-65
2021/12/12 10:52:37;;;;;;;53.13;23.02;;;;;;;7.15;100.00;101966.34;5163710;28;20027;-65
2021/12/12 10:55:12;;;;;;;55.95;23.17;;;;;;;7.19;100.00;101975.88;5164223;28;20726;-65
2021/12/12 10:57:52;;;;;;;54.45;23.02;;;;;;;7.20;100.00;101974.94;5168367;28;20033;-65
2021/12/12 11:00:28;;;;;;;55.80;22.05;;;;;;;7.25;100.00;101978.25;5165783;28;20037;-65
2021/12/12 11:02:59;;;;;;;55.38;21.67;;;;;;;7.25;100.00;101977.41;5166754;28;20026;-65
2021/12/12 11:05:55;;;;;;;49.60;21.65;;;;;;;7.31;100.00;101973.63;5165999;28;20035;-66
2021/12/12 11:08:46;;;;;;;57.42;22.15;;;;;;;7.32;100.00;101973.53;5162724;28;20030;-66
2021/12/12 11:11:21;;;;;;;50.70;21.25;;;;;;;7.29;100.00;101973.69;5170037;28;20092;-66
2021/12/12 11:14:02;;;;;;;40.17;19.85;;;;;;;7.35;100.00;101972.56;5168502;28;20129;-66
2021/12/12 11:16:44;;;;;;;42.28;19.80;;;;;;;7.38;100.00;101977.72;5168106;28;20034;-66
2021/12/12 11:19:25;;;;;;;56.03;21.73;;;;;;;7.36;100.00;101969.81;5165411;28;20038;-66
2021/12/12 11:22:07;;;;;;;58.25;21.15;;;;;;;7.42;100.00;101968.66;5163333;28;20864;-66
2021/12/12 11:24:43;;;;;;;49.00;20.75;;;;;;;7.46;100.00;101968.47;5164921;28;20755;-66
2021/12/12 11:27:21;;;;;;;41.42;20.17;;;;;;;7.52;100.00;101970.00;5162221;28;20511;-66
2021/12/12 11:30:00;;;;;;;43.22;19.85;;;;;;;7.55;100.00;101968.97;5162644;28;20035;-66
2021/12/12 11:32:35;;;;;;;46.17;19.25;;;;;;;7.54;100.00;101962.81;5166135;28;20134;-66
2021/12/12 11:35:10;;;;;;;39.53;17.95;;;;;;;7.57;100.00;101964.47;5166702;28;20446;-66
2021/12/12 11:37:41;;;;;;;38.92;18.00;;;;;;;7.62;100.00;101962.47;5161513;28;20038;-66
2021/12/12 11:40:33;;;;;;;35.47;18.35;;;;;;;7.64;100.00;101972.06;5163650;28;20499;-66
2021/12/12 11:43:26;;;;;;;40.15;18.38;;;;;;;7.69;100.00;101971.88;5159917;28;20139;-66
2021/12/12 11:46:02;;;;;;;35.63;17.80;;;;;;;7.63;100.00;101969.47;5162361;28;20536;-66
2021/12/12 11:48:55;;;;;;;38.67;18.05;;;;;;;7.74;100.00;101967.19;5160371;28;20574;-66
2021/12/12 11:51:36;;;;;;;40.63;19.05;;;;;;;7.79;100.00;101974.97;5160718;28;20037;-66
2021/12/12 11:54:42;;;;;;;43.50;18.27;;;;;;;7.76;100.00;101972.44;5161368;28;20097;-66
2021/12/12 11:57:19;;;;;;;37.88;18.67;;;;;;;7.78;100.00;101971.44;5164726;28;21861;-66
2021/12/12 12:00:08;;;;;;;32.35;17.88;;;;;;;7.84;100.00;101970.28;5166901;28;20030;-66
2021/12/12 12:03:12;;;;;;;36.45;18.08;;;;;;;7.83;100.00;101969.44;5164706;28;20709;-66
2021/12/12 12:06:14;;;;;;;33.05;17.55;;;;;;;7.85;100.00;101967.56;5165612;28;20072;-66
2021/12/12 12:09:01;;;;;;;38.15;17.58;;;;;;;7.83;100.00;101969.44;5162132;28;20523;-66
2021/12/12 12:12:11;;;;;;;32.90;17.27;;;;;;;7.90;100.00;101971.78;5163011;28;20030;-66